Time;durP1;ratioP1;P1;durP2;ratioP2;P2;SDS_P1;SDS_P2;PMS_P1;PMS_P2;Temp;Humidity;BMP_temperature;BMP_pressure;BME280_temperature;BME280_humidity;BME280_pressure;Samples;Min_cycle;Max_cycle;Signal;HPM_P1;HPM_P2
2022/11/19 00:01:13;;;;;;;27.33;10.93;;;;;;;-2.74;100.00;101237.00;5015499;28;20028;-68
2022/11/19 00:03:40;;;;;;;19.73;10.17;;;;;;;-2.47;100.00;101234.97;5019534;28;20017;-69
2022/11/19 00:06:11;;;;;;;21.73;9.93;;;;;;;-2.49;99.13;101245.63;5033238;28;20032;-69
2022/11/19 00:08:37;;;;;;;25.92;9.77;;;;;;;-2.42;98.57;101234.75;5015219;28;20025;-68
2022/11/19 00:11:08;;;;;;;25.13;11.03;;;;;;;-2.52;96.94;101240.47;5015478;28;20029;-69
2022/11/19 00:13:34;;;;;;;22.67;10.23;;;;;;;-2.56;97.01;101244.16;5016975;28;20112;-68
2022/11/19 00:16:13;;;;;;;22.87;10.63;;;;;;;-2.57;97.43;101238.94;5015233;28;20030;-68
2022/11/19 00:18:39;;;;;;;24.63;11.13;;;;;;;-2.64;96.62;101235.69;5032072;28;20032;-69
2022/11/19 00:21:11;;;;;;;24.37;10.90;;;;;;;-2.60;97.41;101237.28;5032963;28;20189;-68
2022/11/19 00:23:36;;;;;;;20.08;10.77;;;;;;;-2.63;97.66;101242.72;5014218;28;20120;-68
2022/11/19 00:26:04;;;;;;;26.93;10.93;;;;;;;-2.63;97.48;101248.00;5015005;28;20525;-68
2022/11/19 00:28:29;;;;;;;26.07;11.60;;;;;;;-2.69;98.21;101247.41;5014964;28;20120;-68
2022/11/19 00:30:59;;;;;;;28.10;12.30;;;;;;;-2.65;97.90;101249.88;5017385;28;20068;-68
2022/11/19 00:33:25;;;;;;;27.13;12.03;;;;;;;-2.84;97.85;101246.25;5046756;28;20049;-68
2022/11/19 00:35:54;;;;;;;25.70;11.67;;;;;;;-2.96;98.74;101254.72;5014522;28;20235;-68
2022/11/19 00:38:20;;;;;;;24.83;11.87;;;;;;;-2.96;98.86;101250.28;5032060;28;20535;-68
2022/11/19 00:40:45;;;;;;;33.20;12.57;;;;;;;-3.10;99.18;101260.56;5032316;28;20021;-68
2022/11/19 00:45:54;;;;;;;27.10;11.50;;;;;;;-2.95;99.06;101261.72;5032274;28;20532;-68
2022/11/19 00:48:19;;;;;;;27.27;12.03;;;;;;;-2.98;100.00;101240.69;5017719;28;20045;-68
2022/11/19 00:50:45;;;;;;;30.77;11.80;;;;;;;-3.19;100.00;101259.16;5034322;28;20108;-68
2022/11/19 00:53:10;;;;;;;21.00;10.60;;;;;;;-3.11;100.00;101262.38;5033777;28;20025;-68
2022/11/19 00:55:37;;;;;;;32.20;12.10;;;;;;;-3.14;100.00;101261.63;5034536;28;20032;-68
2022/11/19 00:58:02;;;;;;;26.37;12.37;;;;;;;-3.10;100.00;101264.09;5034203;28;20085;-68
2022/11/19 01:00:28;;;;;;;24.13;10.57;;;;;;;-3.06;99.74;101265.69;5034528;28;20111;-68
2022/11/19 01:02:53;;;;;;;25.17;11.00;;;;;;;-3.03;99.52;101270.00;5038714;28;20028;-68
2022/11/19 01:05:18;;;;;;;29.03;11.23;;;;;;;-3.12;100.00;101273.88;5044282;28;20056;-68
2022/11/19 01:07:44;;;;;;;26.40;11.37;;;;;;;-3.25;100.00;101275.31;5052470;28;20033;-68
2022/11/19 01:10:09;;;;;;;26.00;12.47;;;;;;;-3.39;100.00;101277.59;5052594;28;20124;-68
2022/11/19 01:13:33;;;;;;;26.33;13.50;;;;;;;-3.22;100.00;101283.09;5034992;28;20114;-68
2022/11/19 01:15:20;;;;;;;25.60;11.70;;;;;;;-3.03;100.00;101286.75;5031887;28;20032;-68
2022/11/19 01:17:45;;;;;;;24.13;11.37;;;;;;;-2.92;100.00;101281.03;5032736;28;20031;-68
2022/11/19 01:20:10;;;;;;;25.00;11.87;;;;;;;-3.08;100.00;101278.13;5014802;28;20499;-68
2022/11/19 01:22:36;;;;;;;23.63;12.17;;;;;;;-2.97;99.61;101284.78;5031923;28;20367;-68
2022/11/19 01:25:01;;;;;;;24.83;10.20;;;;;;;-2.93;99.72;101292.56;5014317;28;20040;-69
2022/11/19 01:27:27;;;;;;;29.00;12.43;;;;;;;-2.98;99.72;101283.06;5014271;28;20049;-69
2022/11/19 01:29:52;;;;;;;26.07;11.07;;;;;;;-3.12;99.00;101281.84;5014703;28;20118;-68
2022/11/19 01:32:17;;;;;;;28.20;11.10;;;;;;;-3.10;99.56;101282.63;5032043;28;20051;-69
2022/11/19 01:34:43;;;;;;;26.33;10.40;;;;;;;-3.37;99.43;101275.78;5018130;28;20025;-68
2022/11/19 01:37:08;;;;;;;25.47;12.57;;;;;;;-3.19;99.77;101288.31;5031817;28;20037;-68
2022/11/19 01:39:33;;;;;;;29.50;11.93;;;;;;;-3.44;99.99;101290.19;5032190;28;20041;-68
2022/11/19 01:41:59;;;;;;;27.30;12.47;;;;;;;-3.63;100.00;101285.56;5014265;28;20457;-69
2022/11/19 01:44:58;;;;;;;31.27;11.83;;;;;;;-3.42;100.00;101283.03;5031605;28;20032;-68
2022/11/19 01:47:23;;;;;;;24.37;11.57;;;;;;;-3.36;100.00;101293.38;5013853;28;20064;-68
2022/11/19 01:49:49;;;;;;;22.47;11.03;;;;;;;-3.15;100.00;101297.81;5028750;28;20057;-69
2022/11/19 01:52:15;;;;;;;27.60;12.87;;;;;;;-2.99;100.00;101294.59;5051483;28;20181;-69
2022/11/19 01:54:47;;;;;;;24.80;11.20;;;;;;;-3.26;100.00;101284.16;5051667;28;20028;-68
2022/11/19 01:57:15;;;;;;;26.90;11.47;;;;;;;-3.65;100.00;101295.38;5034280;28;20040;-69
2022/11/19 01:59:43;;;;;;;26.20;12.67;;;;;;;-3.67;100.00;101291.88;5033750;28;20380;-69
2022/11/19 02:02:08;;;;;;;36.20;12.70;;;;;;;-3.51;100.00;101304.56;5033819;28;20120;-68
2022/11/19 02:04:35;;;;;;;26.80;11.97;;;;;;;-3.42;100.00;101304.19;5014111;28;20116;-69
2022/11/19 02:07:01;;;;;;;30.10;12.20;;;;;;;-3.28;100.00;101312.47;5013647;28;20072;-68
2022/11/19 02:09:28;;;;;;;22.40;11.23;;;;;;;-3.34;100.00;101312.72;5031749;28;20052;-68
2022/11/19 02:12:18;;;;;;;26.43;13.10;;;;;;;-3.35;99.01;101306.56;5014299;28;20032;-68
2022/11/19 02:15:09;;;;;;;26.03;12.33;;;;;;;-3.49;98.94;101313.31;5046349;28;20433;-68
2022/11/19 02:17:51;;;;;;;22.73;10.63;;;;;;;-3.46;98.85;101318.47;5051689;28;20041;-68
2022/11/19 02:20:32;;;;;;;24.83;11.60;;;;;;;-3.57;100.00;101317.09;5033249;28;20033;-68
2022/11/19 02:23:22;;;;;;;26.67;11.60;;;;;;;-3.57;100.00;101322.41;5033353;28;20040;-68
2022/11/19 02:26:24;;;;;;;25.93;13.13;;;;;;;-3.53;100.00;101322.25;5050827;28;20275;-68
2022/11/19 02:29:25;;;;;;;26.27;11.97;;;;;;;-3.75;100.00;101323.06;5018036;28;20107;-69
2022/11/19 02:32:08;;;;;;;19.67;9.80;;;;;;;-3.56;100.00;101328.56;5033064;28;20055;-68
2022/11/19 02:34:56;;;;;;;24.27;12.73;;;;;;;-3.38;100.00;101327.00;5048960;28;20028;-68
2022/11/19 02:37:40;;;;;;;28.17;12.27;;;;;;;-3.49;99.97;101334.47;5050670;28;20025;-69
2022/11/19 02:40:15;;;;;;;32.33;12.17;;;;;;;-3.43;99.58;101323.66;5033228;28;20108;-68
2022/11/19 02:42:55;;;;;;;21.63;9.73;;;;;;;-3.56;99.14;101329.41;5033296;28;20035;-68
2022/11/19 02:45:33;;;;;;;25.43;11.17;;;;;;;-3.49;99.19;101330.03;5033090;28;20138;-68
2022/11/19 02:48:05;;;;;;;24.60;12.30;;;;;;;-3.40;99.57;101334.13;5033055;28;20032;-68
2022/11/19 02:50:40;;;;;;;26.65;12.75;;;;;;;-3.50;99.97;101327.47;5013894;28;20091;-69
2022/11/19 02:53:05;;;;;;;23.40;10.90;;;;;;;-3.74;100.00;101330.09;5013283;28;20060;-68
2022/11/19 02:55:31;;;;;;;24.50;11.53;;;;;;;-3.87;100.00;101334.09;5013240;28;20474;-68
2022/11/19 02:58:05;;;;;;;24.77;12.33;;;;;;;-3.59;100.00;101331.28;5020828;28;20024;-68
2022/11/19 03:06:26;;;;;;;22.67;11.77;;;;;;;-3.38;100.00;101343.75;5033833;28;20028;-68
2022/11/19 03:08:51;;;;;;;21.03;11.67;;;;;;;-3.34;99.58;101328.59;5028741;28;20029;-69
2022/11/19 03:11:25;;;;;;;23.93;11.10;;;;;;;-3.39;98.96;101319.94;5054398;28;20040;-69
2022/11/19 03:17:06;;;;;;;27.17;11.40;;;;;;;-3.46;98.70;101334.34;5053403;28;20028;-68
2022/11/19 03:19:50;;;;;;;27.20;12.10;;;;;;;-3.55;98.28;101330.28;5035906;28;20056;-68
2022/11/19 03:22:31;;;;;;;23.77;11.57;;;;;;;-3.58;98.19;101331.25;5035954;28;20028;-68
2022/11/19 03:25:08;;;;;;;31.23;11.43;;;;;;;-3.59;98.59;101334.84;5058999;22;20098;-71
2022/11/19 03:27:41;;;;;;;34.80;13.57;;;;;;;-3.61;98.86;101328.72;5014437;28;20385;-70
2022/11/19 03:30:09;;;;;;;24.57;11.90;;;;;;;-3.49;98.87;101329.19;4999235;28;20049;-70
2022/11/19 03:32:39;;;;;;;33.63;13.07;;;;;;;-3.41;99.09;101327.09;5016295;28;20037;-70
2022/11/19 03:35:10;;;;;;;31.40;11.53;;;;;;;-3.40;98.81;101340.28;5014082;28;20093;-69
2022/11/19 03:37:38;;;;;;;19.05;8.70;;;;;;;-3.63;99.87;101327.91;4994228;28;20018;-72
2022/11/19 03:40:07;;;;;;;27.20;11.40;;;;;;;-3.70;100.00;101322.91;4979589;28;20098;-70
2022/11/19 03:42:34;;;;;;;29.83;12.37;;;;;;;-3.61;100.00;101331.34;4989237;28;20091;-70
2022/11/19 03:45:10;;;;;;;27.87;12.67;;;;;;;-3.50;100.00;101327.47;4998058;28;20548;-70
2022/11/19 03:47:39;;;;;;;27.80;11.50;;;;;;;-3.48;100.00;101330.91;4998109;28;20022;-70
2022/11/19 03:50:15;;;;;;;22.77;11.87;;;;;;;-3.52;98.96;101330.19;4982147;28;20502;-70
2022/11/19 03:52:42;;;;;;;24.17;10.43;;;;;;;-3.81;98.57;101333.88;4997516;28;20124;-70
2022/11/19 03:55:08;;;;;;;23.30;11.10;;;;;;;-3.89;98.35;101330.66;4979674;28;20088;-70
2022/11/19 03:57:33;;;;;;;24.27;12.07;;;;;;;-3.85;99.92;101342.81;4979452;28;20031;-70
2022/11/19 03:59:59;;;;;;;20.73;11.00;;;;;;;-3.92;99.14;101343.97;4990882;28;20521;-71
2022/11/19 04:02:24;;;;;;;26.47;12.00;;;;;;;-4.03;99.27;101346.16;5014980;28;20056;-71
2022/11/19 04:04:49;;;;;;;24.60;12.33;;;;;;;-4.04;100.00;101347.03;4997911;28;20026;-70
2022/11/19 04:07:19;;;;;;;21.00;11.43;;;;;;;-3.95;100.00;101350.25;4998653;28;20029;-70
2022/11/19 04:09:44;;;;;;;24.97;11.20;;;;;;;-3.80;100.00;101358.53;4993456;28;20062;-69
2022/11/19 04:12:24;;;;;;;26.33;10.97;;;;;;;-3.86;99.58;101351.69;4978607;28;20026;-70
2022/11/19 04:14:50;;;;;;;25.83;11.90;;;;;;;-3.94;99.71;101343.16;4978779;28;20034;-70
2022/11/19 04:17:17;;;;;;;22.30;11.53;;;;;;;-4.14;100.00;101341.22;4978557;28;20019;-70
2022/11/19 04:19:43;;;;;;;31.47;12.27;;;;;;;-3.93;100.00;101350.19;4978843;28;20050;-70
2022/11/19 04:22:08;;;;;;;21.03;10.50;;;;;;;-3.88;100.00;101354.38;4978986;28;20034;-70
2022/11/19 04:24:34;;;;;;;27.40;13.00;;;;;;;-3.80;100.00;101346.19;4978072;28;20390;-70
2022/11/19 04:26:59;;;;;;;26.60;11.90;;;;;;;-3.74;99.65;101345.97;4978433;28;20033;-71
2022/11/19 04:29:24;;;;;;;23.63;11.93;;;;;;;-3.63;100.00;101343.78;4978557;28;20034;-70
2022/11/19 04:31:50;;;;;;;28.80;13.37;;;;;;;-3.66;100.00;101338.59;5005195;28;20056;-69
2022/11/19 04:34:15;;;;;;;26.10;12.30;;;;;;;-3.76;100.00;101342.50;4997414;28;20022;-71
2022/11/19 04:36:41;;;;;;;23.70;11.33;;;;;;;-3.82;99.68;101337.44;4996876;28;20386;-71
2022/11/19 04:39:07;;;;;;;21.53;10.63;;;;;;;-3.71;99.83;101351.16;4998260;28;20037;-71
2022/11/19 04:41:34;;;;;;;27.53;12.57;;;;;;;-3.89;100.00;101343.88;4997940;28;20030;-69
2022/11/19 04:43:59;;;;;;;30.37;12.57;;;;;;;-3.93;100.00;101344.88;5009445;28;20033;-70
2022/11/19 04:46:25;;;;;;;23.97;11.93;;;;;;;-3.78;100.00;101339.06;4995283;28;20038;-69
2022/11/19 04:48:51;;;;;;;24.77;10.67;;;;;;;-3.72;100.00;101344.09;4984656;28;20048;-70
2022/11/19 04:51:16;;;;;;;25.87;11.40;;;;;;;-3.64;100.00;101336.78;4997533;28;20026;-70
2022/11/19 04:53:41;;;;;;;24.60;11.60;;;;;;;-3.52;100.00;101339.88;4996525;28;20038;-69
2022/11/19 04:56:07;;;;;;;25.50;12.03;;;;;;;-3.47;99.42;101343.22;4997044;28;20077;-70
2022/11/19 04:58:33;;;;;;;28.93;12.33;;;;;;;-3.65;99.18;101332.41;4997183;28;20026;-70
2022/11/19 05:00:59;;;;;;;22.27;11.83;;;;;;;-3.66;99.33;101328.00;5014807;28;20064;-70
2022/11/19 05:03:24;;;;;;;23.40;12.70;;;;;;;-3.70;99.67;101337.00;5015429;28;20034;-71
2022/11/19 05:05:49;;;;;;;30.80;13.67;;;;;;;-3.75;100.00;101322.22;4996740;28;20026;-70
2022/11/19 05:08:15;;;;;;;25.80;12.10;;;;;;;-3.88;100.00;101322.66;4996750;28;20091;-70
2022/11/19 05:10:42;;;;;;;27.07;11.50;;;;;;;-3.74;100.00;101330.09;4996871;28;20022;-70
2022/11/19 05:13:07;;;;;;;26.87;10.03;;;;;;;-3.74;100.00;101330.09;5012738;28;20025;-69
2022/11/19 05:15:33;;;;;;;25.00;12.00;;;;;;;-3.82;100.00;101332.16;5013095;28;20048;-70
2022/11/19 05:17:58;;;;;;;25.80;12.67;;;;;;;-3.92;100.00;101336.03;4996288;28;20030;-70
2022/11/19 05:20:23;;;;;;;25.03;11.43;;;;;;;-3.80;100.00;101332.94;4996333;28;20060;-70
2022/11/19 05:22:49;;;;;;;36.47;13.27;;;;;;;-3.70;100.00;101331.72;4995439;28;20065;-70
2022/11/19 05:25:14;;;;;;;20.80;10.70;;;;;;;-3.58;100.00;101341.84;4995900;28;20104;-70
2022/11/19 05:27:39;;;;;;;24.87;11.00;;;;;;;-3.67;100.00;101336.88;4995703;28;20030;-70
2022/11/19 05:30:05;;;;;;;25.27;11.27;;;;;;;-3.57;100.00;101340.91;4995495;28;20037;-70
2022/11/19 05:32:31;;;;;;;27.47;13.73;;;;;;;-3.43;100.00;101342.19;4993562;28;20076;-70
2022/11/19 05:34:56;;;;;;;23.77;11.10;;;;;;;-3.48;100.00;101330.91;5012686;28;20030;-70
2022/11/19 05:37:21;;;;;;;27.50;11.37;;;;;;;-3.40;100.00;101329.69;4995646;28;20017;-69
2022/11/19 05:39:47;;;;;;;27.87;11.80;;;;;;;-3.29;100.00;101347.81;4995029;28;20029;-70
2022/11/19 05:42:12;;;;;;;23.43;11.77;;;;;;;-3.18;100.00;101344.78;4995029;28;20127;-70
2022/11/19 05:44:37;;;;;;;28.50;12.37;;;;;;;-2.95;100.00;101349.16;5000758;28;20076;-70
2022/11/19 05:47:03;;;;;;;22.93;11.20;;;;;;;-2.93;100.00;101349.97;4975570;28;20026;-70
2022/11/19 05:49:28;;;;;;;25.37;12.17;;;;;;;-2.84;100.00;101344.31;5005079;28;20022;-70
2022/11/19 05:51:53;;;;;;;24.93;11.47;;;;;;;-2.76;100.00;101347.50;5011798;28;20034;-70
2022/11/19 05:54:19;;;;;;;23.90;12.33;;;;;;;-2.64;100.00;101352.31;4994148;28;20024;-70
2022/11/19 05:56:44;;;;;;;22.07;11.80;;;;;;;-2.56;100.00;101347.53;5012219;28;20489;-70
2022/11/19 05:59:09;;;;;;;33.70;12.47;;;;;;;-2.47;100.00;101352.50;4994585;28;20068;-70
2022/11/19 06:01:34;;;;;;;23.80;11.93;;;;;;;-2.32;100.00;101347.47;4994658;28;20022;-70
2022/11/19 06:04:00;;;;;;;20.57;10.80;;;;;;;-2.42;100.00;101351.41;4994194;28;20109;-70
2022/11/19 06:06:26;;;;;;;23.70;10.70;;;;;;;-2.40;100.00;101344.28;4994079;28;20080;-72
2022/11/19 06:08:52;;;;;;;22.63;13.10;;;;;;;-2.31;100.00;101349.19;4994027;28;20026;-71
2022/11/19 06:14:01;;;;;;;22.73;12.43;;;;;;;-2.21;100.00;101350.53;5011747;28;20034;-70
2022/11/19 06:16:27;;;;;;;24.30;11.63;;;;;;;-2.33;100.00;101343.94;4994281;28;20026;-71
2022/11/19 06:18:53;;;;;;;26.87;12.53;;;;;;;-2.22;100.00;101343.47;4994520;28;20048;-71
2022/11/19 06:21:18;;;;;;;25.37;11.87;;;;;;;-2.12;100.00;101350.13;4994230;28;20037;-72
2022/11/19 06:23:44;;;;;;;25.73;12.27;;;;;;;-2.13;100.00;101337.81;4994085;28;20118;-71
2022/11/19 06:26:10;;;;;;;24.43;12.23;;;;;;;-2.15;100.00;101344.06;4994562;28;20034;-71
2022/11/19 06:28:35;;;;;;;24.20;12.17;;;;;;;-2.12;100.00;101347.47;5012142;28;20029;-71
2022/11/19 06:31:01;;;;;;;24.27;11.90;;;;;;;-2.16;100.00;101343.22;5011507;28;20058;-71
2022/11/19 06:33:26;;;;;;;27.10;11.87;;;;;;;-2.15;100.00;101339.66;4993730;28;20044;-71
2022/11/19 06:35:51;;;;;;;25.17;12.17;;;;;;;-2.03;100.00;101349.72;4993999;28;20026;-71
2022/11/19 06:38:17;;;;;;;22.73;12.33;;;;;;;-2.20;99.43;101353.13;5010263;28;20026;-72
2022/11/19 06:40:44;;;;;;;26.90;13.63;;;;;;;-2.08;99.83;101349.09;4993308;28;20029;-71
2022/11/19 06:43:09;;;;;;;26.03;12.43;;;;;;;-2.12;99.20;101344.81;4993219;28;20479;-70
2022/11/19 06:45:35;;;;;;;29.70;12.57;;;;;;;-2.09;99.50;101343.81;5007724;28;20022;-71
2022/11/19 06:48:00;;;;;;;26.60;12.03;;;;;;;-2.19;100.00;101338.06;5010129;28;20482;-71
2022/11/19 06:50:25;;;;;;;25.83;12.20;;;;;;;-2.07;99.71;101340.19;4993235;28;20571;-71
2022/11/19 06:52:51;;;;;;;24.73;13.10;;;;;;;-2.01;99.53;101347.88;5010177;28;20064;-71
2022/11/19 06:55:16;;;;;;;22.97;12.30;;;;;;;-2.15;100.00;101350.28;4993291;28;20022;-71
2022/11/19 06:57:41;;;;;;;23.23;12.13;;;;;;;-2.07;99.55;101353.47;4991650;28;20022;-71
2022/11/19 07:00:08;;;;;;;21.17;10.77;;;;;;;-2.03;98.92;101355.03;5008099;28;20018;-71
2022/11/19 07:02:33;;;;;;;26.83;11.17;;;;;;;-2.06;98.92;101364.94;4992932;28;20026;-71
2022/11/19 07:04:58;;;;;;;20.27;11.13;;;;;;;-2.00;98.77;101360.22;5009671;28;20124;-70
2022/11/19 07:07:24;;;;;;;24.90;10.63;;;;;;;-2.11;98.54;101351.84;4992221;28;20076;-71
2022/11/19 07:09:49;;;;;;;25.47;11.63;;;;;;;-2.17;99.76;101352.13;4993561;28;20032;-72
2022/11/19 07:12:14;;;;;;;22.90;12.03;;;;;;;-2.00;98.68;101354.91;4994232;28;20120;-71
2022/11/19 07:14:40;;;;;;;25.60;12.33;;;;;;;-2.24;99.44;101346.22;4993880;28;20022;-71
2022/11/19 07:17:05;;;;;;;27.47;12.73;;;;;;;-2.13;100.00;101348.41;4993052;28;20049;-72
2022/11/19 07:19:31;;;;;;;23.77;11.30;;;;;;;-2.06;100.00;101354.31;4994070;28;20077;-72
2022/11/19 07:21:56;;;;;;;26.53;11.43;;;;;;;-2.12;99.53;101350.13;5011065;28;20017;-72
2022/11/19 07:24:21;;;;;;;21.50;12.80;;;;;;;-2.01;99.72;101347.03;5010206;28;20022;-71
2022/11/19 07:26:47;;;;;;;27.43;13.37;;;;;;;-2.01;100.00;101350.53;4993504;28;20033;-71
2022/11/19 07:29:13;;;;;;;24.67;12.27;;;;;;;-1.97;100.00;101348.59;4993550;28;20054;-71
2022/11/19 07:31:39;;;;;;;26.27;12.30;;;;;;;-1.91;99.99;101348.34;4993537;28;20026;-72
2022/11/19 07:34:09;;;;;;;26.37;11.90;;;;;;;-1.89;100.00;101353.56;4992599;28;20045;-71
2022/11/19 07:36:35;;;;;;;28.23;12.30;;;;;;;-1.77;100.00;101345.94;4992658;28;20091;-79
2022/11/19 07:39:00;;;;;;;21.90;11.70;;;;;;;-1.69;100.00;101342.97;5025745;28;20081;-79
2022/11/19 07:44:13;;;;;;;27.73;12.20;;;;;;;-1.60;100.00;101342.53;5024808;28;20110;-79
2022/11/19 07:46:39;;;;;;;23.93;11.27;;;;;;;-1.48;100.00;101347.28;5027565;28;20026;-79
2022/11/19 07:49:05;;;;;;;28.97;12.87;;;;;;;-1.42;100.00;101336.41;5011494;28;20018;-78
2022/11/19 07:51:30;;;;;;;35.50;13.27;;;;;;;-1.26;100.00;101325.06;5018447;28;20075;-78
2022/11/19 07:53:55;;;;;;;29.60;12.93;;;;;;;-1.45;100.00;101325.91;5018432;28;20017;-78
2022/11/19 07:56:21;;;;;;;29.43;12.77;;;;;;;-1.38;100.00;101330.00;5018104;28;20026;-77
2022/11/19 07:58:46;;;;;;;29.40;12.97;;;;;;;-1.20;100.00;101330.06;5002936;28;20083;-78
2022/11/19 08:01:19;;;;;;;25.23;12.60;;;;;;;-1.09;100.00;101330.44;5008191;28;20022;-78
2022/11/19 08:03:46;;;;;;;23.17;11.77;;;;;;;-0.95;99.98;101330.66;5002451;28;20026;-78
2022/11/19 08:06:12;;;;;;;23.77;11.97;;;;;;;-0.84;99.88;101333.66;5004385;28;20026;-79
2022/11/19 08:08:38;;;;;;;24.23;12.87;;;;;;;-0.92;100.00;101325.16;5012037;28;20036;-79
2022/11/19 08:11:05;;;;;;;24.30;11.97;;;;;;;-0.72;100.00;101336.63;5011257;28;20053;-79
2022/11/19 08:13:32;;;;;;;23.43;11.27;;;;;;;-0.62;99.73;101330.78;4999436;28;20032;-77
2022/11/19 08:16:05;;;;;;;16.67;10.27;;;;;;;-0.41;99.57;101331.53;4989003;28;20037;-78
2022/11/19 08:18:31;;;;;;;22.33;10.83;;;;;;;-0.31;99.60;101316.84;4992274;28;20090;-78
2022/11/19 08:21:09;;;;;;;25.50;10.27;;;;;;;-0.41;99.68;101320.88;5022663;28;20047;-78
2022/11/19 08:23:37;;;;;;;17.73;8.63;;;;;;;-0.25;99.51;101325.44;5015197;28;20165;-79
2022/11/19 08:26:04;;;;;;;23.37;11.57;;;;;;;-0.19;98.76;101322.47;5009195;28;20494;-79
2022/11/19 08:28:30;;;;;;;18.50;9.77;;;;;;;-0.20;99.31;101323.38;5002328;28;20038;-78
2022/11/19 08:31:03;;;;;;;20.73;10.27;;;;;;;-0.12;99.92;101326.53;5008653;28;20035;-78
2022/11/19 08:33:28;;;;;;;21.50;10.30;;;;;;;0.15;98.80;101325.09;5007693;28;20057;-79
2022/11/19 08:35:55;;;;;;;21.83;10.67;;;;;;;0.20;97.38;101327.53;5001938;28;20048;-79
2022/11/19 08:38:20;;;;;;;22.73;12.03;;;;;;;0.33;98.05;101327.75;5019814;28;20042;-79
2022/11/19 08:40:51;;;;;;;17.03;10.00;;;;;;;0.19;98.51;101331.97;5006159;28;20021;-78
2022/11/19 08:43:16;;;;;;;19.03;9.43;;;;;;;0.43;98.07;101328.97;5004169;28;20014;-79
2022/11/19 08:45:53;;;;;;;21.93;9.37;;;;;;;0.42;98.42;101327.25;5007475;28;20036;-79
2022/11/19 08:48:18;;;;;;;20.57;9.50;;;;;;;0.44;98.23;101325.34;5010110;28;20054;-79
2022/11/19 08:50:44;;;;;;;18.77;8.90;;;;;;;0.49;98.58;101323.31;5022360;28;20025;-79
2022/11/19 08:53:09;;;;;;;19.13;10.03;;;;;;;0.65;98.04;101321.53;5012304;28;20089;-80
2022/11/19 08:55:34;;;;;;;14.13;8.43;;;;;;;0.77;97.67;101323.50;5018652;28;20449;-79
2022/11/19 08:58:05;;;;;;;16.63;9.23;;;;;;;0.62;97.53;101324.38;5006296;28;20044;-79
2022/11/19 09:00:33;;;;;;;12.15;6.63;;;;;;;0.74;97.32;101323.69;5004170;28;20158;-79
2022/11/19 09:02:59;;;;;;;22.33;8.70;;;;;;;0.71;97.53;101318.50;5000200;28;20030;-78
2022/11/19 09:05:24;;;;;;;22.53;10.00;;;;;;;0.79;98.60;101326.13;4993863;28;20028;-79
2022/11/19 09:07:50;;;;;;;17.47;9.37;;;;;;;0.77;98.40;101323.50;4996900;28;20033;-78
2022/11/19 09:10:16;;;;;;;18.37;9.43;;;;;;;0.95;98.02;101324.31;5004975;28;20021;-78
2022/11/19 09:12:41;;;;;;;17.90;9.83;;;;;;;0.90;98.25;101322.84;5009639;28;20033;-78
2022/11/19 09:15:07;;;;;;;16.80;9.13;;;;;;;0.93;98.42;101328.00;4997869;28;20025;-78
2022/11/19 09:17:33;;;;;;;16.50;8.37;;;;;;;0.97;99.54;101324.22;5012779;28;20018;-78
2022/11/19 09:19:58;;;;;;;15.07;8.20;;;;;;;0.98;98.75;101315.28;4996151;28;20022;-78
2022/11/19 09:22:24;;;;;;;13.73;7.80;;;;;;;1.07;98.67;101326.28;5011972;28;20022;-78
2022/11/19 09:24:50;;;;;;;16.43;8.30;;;;;;;1.13;97.99;101311.75;4987618;28;20034;-78
2022/11/19 09:27:17;;;;;;;16.67;8.10;;;;;;;0.92;99.15;101316.50;5008285;28;20462;-78
2022/11/19 09:29:43;;;;;;;14.67;8.17;;;;;;;0.96;99.57;101319.84;4988270;28;20030;-77
2022/11/19 09:32:09;;;;;;;18.40;8.43;;;;;;;1.01;99.30;101317.78;4989252;28;20029;-77
2022/11/19 09:34:39;;;;;;;19.33;9.87;;;;;;;1.27;98.44;101322.50;4997235;28;20100;-78
2022/11/19 09:37:06;;;;;;;19.33;9.17;;;;;;;1.25;98.49;101320.88;4997416;28;20018;-78
2022/11/19 09:39:31;;;;;;;26.63;8.83;;;;;;;1.18;99.21;101323.03;4994097;28;20021;-78
2022/11/19 09:42:10;;;;;;;20.47;9.30;;;;;;;1.24;99.02;101321.78;4998393;28;20076;-78
2022/11/19 09:45:01;;;;;;;15.17;9.03;;;;;;;1.25;98.55;101324.41;5006932;28;20088;-79
2022/11/19 09:47:51;;;;;;;21.87;8.67;;;;;;;1.27;98.16;101333.16;5008414;28;20084;-79
2022/11/19 09:50:16;;;;;;;21.53;9.07;;;;;;;1.46;98.95;101321.44;5003423;28;20546;-78
2022/11/19 09:53:13;;;;;;;15.20;7.73;;;;;;;1.48;98.25;101322.19;5005572;28;20041;-78
2022/11/19 09:55:41;;;;;;;21.80;8.27;;;;;;;1.71;98.38;101311.03;4989573;28;20042;-75
2022/11/19 09:58:19;;;;;;;16.03;7.53;;;;;;;1.90;97.39;101327.69;4997682;28;20045;-75
2022/11/19 10:00:45;;;;;;;13.40;8.40;;;;;;;1.76;98.14;101318.75;4995227;28;20034;-74
2022/11/19 10:03:16;;;;;;;19.77;8.57;;;;;;;2.06;96.91;101316.06;5005990;28;20037;-77
2022/11/19 10:06:19;;;;;;;15.03;8.30;;;;;;;2.26;95.62;101318.38;4994507;28;20033;-75
2022/11/19 10:09:03;;;;;;;16.47;8.37;;;;;;;2.38;95.20;101317.63;4990868;28;20026;-75
2022/11/19 10:11:31;;;;;;;19.87;9.10;;;;;;;2.45;95.07;101320.78;5006746;28;20026;-75
2022/11/19 10:14:25;;;;;;;16.75;7.95;;;;;;;2.49;95.36;101329.50;5013835;28;20039;-74
2022/11/19 10:17:20;;;;;;;16.30;8.10;;;;;;;2.54;95.11;101322.03;5006196;28;20022;-74
2022/11/19 10:20:21;;;;;;;12.97;7.57;;;;;;;2.47;94.88;101320.69;4999992;28;20022;-74
2022/11/19 10:23:01;;;;;;;15.13;8.00;;;;;;;2.58;94.49;101312.88;4998024;28;20042;-74
2022/11/19 10:25:37;;;;;;;17.90;8.03;;;;;;;2.59;94.68;101314.59;5008020;28;20026;-74
2022/11/19 10:28:12;;;;;;;16.98;7.60;;;;;;;2.83;94.84;101307.69;4992958;28;20022;-74
2022/11/19 10:30:41;;;;;;;18.92;8.38;;;;;;;3.11;93.30;101311.25;4999465;28;20141;-74
2022/11/19 10:33:50;;;;;;;13.63;7.45;;;;;;;2.99;92.90;101305.72;5005809;28;20038;-73
2022/11/19 10:36:29;;;;;;;13.90;6.68;;;;;;;3.15;93.37;101302.09;4890950;29;20115;-73
2022/11/19 10:39:02;;;;;;;16.00;6.63;;;;;;;3.36;92.73;101300.66;4891174;29;20506;-74
2022/11/19 10:41:38;;;;;;;13.50;6.63;;;;;;;3.43;92.13;101291.28;4952756;28;20053;-75
2022/11/19 10:44:39;;;;;;;11.85;6.20;;;;;;;3.59;91.37;101290.25;4990102;28;20069;-74
2022/11/19 10:47:15;;;;;;;11.70;6.30;;;;;;;3.49;91.08;101285.50;5012109;28;20036;-73
2022/11/19 10:49:42;;;;;;;10.65;6.82;;;;;;;3.36;91.45;101287.28;4998099;28;20161;-73
2022/11/19 10:52:22;;;;;;;13.23;7.20;;;;;;;3.09;92.72;101286.44;4998040;28;20030;-72
2022/11/19 10:54:51;;;;;;;13.85;6.65;;;;;;;3.17;92.30;101278.75;5013210;28;20061;-72
2022/11/19 10:57:18;;;;;;;17.92;6.88;;;;;;;3.02;93.20;101275.28;4994889;28;20494;-75
2022/11/19 10:59:46;;;;;;;15.63;7.10;;;;;;;3.13;93.71;101277.22;4995864;28;20049;-75
2022/11/19 11:02:25;;;;;;;12.48;5.95;;;;;;;3.31;93.06;101273.34;4993940;28;20176;-73
2022/11/19 11:05:06;;;;;;;17.98;7.00;;;;;;;3.44;92.52;101266.22;4991833;28;20033;-72
2022/11/19 11:07:53;;;;;;;10.50;6.15;;;;;;;3.29;92.85;101261.91;5006909;28;20026;-72
2022/11/19 11:10:31;;;;;;;15.68;7.55;;;;;;;3.47;93.03;101266.03;4990995;28;20025;-73
2022/11/19 11:16:03;;;;;;;8.32;4.95;;;;;;;3.99;90.58;101257.09;5006732;28;20022;-72
2022/11/19 11:18:30;;;;;;;14.10;5.15;;;;;;;3.89;91.10;101255.16;5000857;28;20048;-72
2022/11/19 11:20:58;;;;;;;14.88;6.55;;;;;;;3.94;91.75;101259.25;4990685;28;20553;-73
2022/11/19 11:23:27;;;;;;;11.88;6.32;;;;;;;4.00;91.41;101256.13;5007199;28;20080;-73
2022/11/19 11:26:09;;;;;;;12.25;6.53;;;;;;;3.75;91.72;101242.72;5001285;28;20112;-73
2022/11/19 11:28:35;;;;;;;13.20;6.75;;;;;;;4.08;91.84;101240.38;5001988;28;20025;-73
2022/11/19 11:31:08;;;;;;;12.68;6.40;;;;;;;4.24;90.86;101239.31;4998000;28;20025;-73
2022/11/19 11:33:37;;;;;;;14.57;6.97;;;;;;;4.35;90.34;101236.72;5007709;28;20026;-74
2022/11/19 11:36:13;;;;;;;12.55;6.03;;;;;;;4.40;90.48;101233.72;4994491;28;20577;-73
2022/11/19 11:38:47;;;;;;;12.30;5.45;;;;;;;4.47;89.35;101227.78;4995898;28;20041;-73
2022/11/19 11:41:16;;;;;;;9.70;4.85;;;;;;;4.72;89.04;101217.97;5002594;28;20603;-74